Time;durP1;ratioP1;P1;durP2;ratioP2;P2;SDS_P1;SDS_P2;PMS_P1;PMS_P2;Temp;Humidity;BMP_temperature;BMP_pressure;BME280_temperature;BME280_humidity;BME280_pressure;Samples;Min_cycle;Max_cycle;Signal;HPM_P1;HPM_P2
2023/06/19 00:02:06;;;;;;;3.92;3.05;;;26.50;43.00;;;;;;5037933;28;20040;-75
2023/06/19 00:04:32;;;;;;;4.20;3.47;;;26.50;43.10;;;;;;5054916;28;20029;-75
2023/06/19 00:07:00;;;;;;;3.92;3.22;;;26.50;43.10;;;;;;5054610;28;20045;-74
2023/06/19 00:09:26;;;;;;;4.15;3.33;;;26.40;43.10;;;;;;5038087;28;20029;-74
2023/06/19 00:11:51;;;;;;;3.92;3.28;;;26.40;43.10;;;;;;5054483;28;20029;-75
2023/06/19 00:14:17;;;;;;;4.50;3.50;;;26.40;43.10;;;;;;5055446;28;20462;-74
2023/06/19 00:16:44;;;;;;;4.70;3.30;;;26.40;43.10;;;;;;5037756;28;20031;-75
2023/06/19 00:19:11;;;;;;;4.13;3.15;;;26.40;43.20;;;;;;5054027;28;20074;-74
2023/06/19 00:21:38;;;;;;;4.63;3.67;;;26.30;43.10;;;;;;5054185;28;20028;-75
2023/06/19 00:24:04;;;;;;;4.93;3.65;;;26.30;43.10;;;;;;5054061;28;20104;-75
2023/06/19 00:26:30;;;;;;;5.25;3.47;;;26.30;43.20;;;;;;5054814;28;20091;-76
2023/06/19 00:28:56;;;;;;;3.80;3.05;;;26.30;43.20;;;;;;5054997;28;20029;-74
2023/06/19 00:31:22;;;;;;;4.40;3.30;;;26.30;43.30;;;;;;5054401;28;20056;-74
2023/06/19 00:33:49;;;;;;;4.47;3.40;;;26.20;43.20;;;;;;5037545;28;20033;-74
2023/06/19 00:36:20;;;;;;;4.28;3.53;;;26.20;43.20;;;;;;5054073;28;20033;-74
2023/06/19 00:38:47;;;;;;;3.85;3.28;;;26.20;43.30;;;;;;5054246;28;20469;-74
2023/06/19 00:41:15;;;;;;;4.00;3.08;;;26.20;43.30;;;;;;5054963;28;20033;-74
2023/06/19 00:43:42;;;;;;;4.18;3.22;;;26.20;43.30;;;;;;5055180;28;20021;-74
2023/06/19 00:46:08;;;;;;;4.13;3.30;;;26.20;43.30;;;;;;5037435;28;20094;-74
2023/06/19 00:48:34;;;;;;;3.92;3.05;;;26.20;43.40;;;;;;5053619;28;20029;-74
2023/06/19 00:51:01;;;;;;;3.72;2.92;;;26.20;43.40;;;;;;5054816;28;20120;-74
2023/06/19 00:53:27;;;;;;;4.00;3.08;;;26.10;43.30;;;;;;5053262;28;20087;-74
2023/06/19 00:55:54;;;;;;;3.97;3.28;;;26.10;43.30;;;;;;5053372;28;20024;-75
2023/06/19 00:58:24;;;;;;;4.25;3.35;;;26.10;43.40;;;;;;5053544;28;20025;-74
2023/06/19 01:00:50;;;;;;;3.72;3.08;;;26.10;43.40;;;;;;5054585;28;20037;-74
2023/06/19 01:03:16;;;;;;;3.95;3.20;;;26.10;43.40;;;;;;5054624;28;20040;-74
2023/06/19 01:05:44;;;;;;;3.67;2.80;;;26.10;43.40;;;;;;5053639;28;20082;-75
2023/06/19 01:08:18;;;;;;;4.30;3.55;;;26.10;43.40;;;;;;5054483;28;20020;-75
2023/06/19 01:10:49;;;;;;;3.90;3.22;;;26.10;43.50;;;;;;5036907;28;20039;-74
2023/06/19 01:13:34;;;;;;;4.65;3.53;;;26.10;43.50;;;;;;5053110;28;20036;-74
2023/06/19 01:16:02;;;;;;;3.22;2.65;;;26.00;43.50;;;;;;5054083;28;20454;-76
2023/06/19 01:18:30;;;;;;;3.88;3.03;;;26.00;43.50;;;;;;5037065;28;20111;-74
2023/06/19 01:20:56;;;;;;;5.72;3.00;;;26.00;43.50;;;;;;5052842;28;20094;-74
2023/06/19 01:23:21;;;;;;;3.70;3.03;;;26.00;43.50;;;;;;5052869;28;20469;-75
2023/06/19 01:25:47;;;;;;;4.03;3.13;;;26.00;43.50;;;;;;5037063;28;20082;-76
2023/06/19 01:28:13;;;;;;;3.85;3.08;;;26.00;43.60;;;;;;5036143;28;20029;-75
2023/06/19 01:30:42;;;;;;;4.05;3.15;;;25.90;43.50;;;;;;5053602;28;20505;-74
2023/06/19 01:33:32;;;;;;;4.15;3.05;;;26.00;43.60;;;;;;5052844;28;20477;-75
2023/06/19 01:35:58;;;;;;;3.60;2.90;;;26.00;43.60;;;;;;5036273;28;20078;-74
2023/06/19 01:38:28;;;;;;;3.53;2.88;;;25.90;43.50;;;;;;5052935;28;20036;-74
2023/06/19 01:40:56;;;;;;;4.10;2.85;;;25.90;43.60;;;;;;5052987;28;20072;-75
2023/06/19 01:43:23;;;;;;;3.47;2.72;;;25.90;43.60;;;;;;5052491;28;20032;-75
2023/06/19 01:45:51;;;;;;;4.10;3.10;;;25.90;43.60;;;;;;5052463;28;20115;-74
2023/06/19 01:48:17;;;;;;;3.50;2.72;;;25.80;43.60;;;;;;5052430;28;20484;-75
2023/06/19 01:50:48;;;;;;;3.80;2.97;;;25.80;43.60;;;;;;5019624;28;20037;-76
2023/06/19 01:53:15;;;;;;;3.63;2.72;;;25.90;43.70;;;;;;5052364;28;20053;-74
2023/06/19 01:55:41;;;;;;;3.45;2.78;;;25.80;43.60;;;;;;5036212;28;20032;-76
2023/06/19 01:58:07;;;;;;;3.38;2.70;;;25.80;43.60;;;;;;5052172;28;20063;-74
2023/06/19 02:00:36;;;;;;;3.83;2.88;;;25.80;43.70;;;;;;5035667;28;20057;-74
2023/06/19 02:03:03;;;;;;;4.25;2.83;;;25.80;43.70;;;;;;5052339;28;20025;-75
2023/06/19 02:05:34;;;;;;;4.43;3.35;;;25.80;43.70;;;;;;5051697;28;20124;-74
2023/06/19 02:08:01;;;;;;;3.38;2.80;;;25.80;43.70;;;;;;5036371;28;20032;-74
2023/06/19 02:10:26;;;;;;;3.50;2.67;;;25.80;43.70;;;;;;5035803;28;20029;-76
2023/06/19 02:12:52;;;;;;;4.03;2.90;;;25.80;43.80;;;;;;5051947;28;20339;-75
2023/06/19 02:15:18;;;;;;;3.67;2.78;;;25.70;43.70;;;;;;5035624;28;20037;-75
2023/06/19 02:17:44;;;;;;;3.63;2.78;;;25.70;43.70;;;;;;5036467;28;20236;-75
2023/06/19 02:20:11;;;;;;;3.20;2.53;;;25.70;43.70;;;;;;5053332;28;20389;-74
2023/06/19 02:22:40;;;;;;;3.70;2.63;;;25.70;43.70;;;;;;5052426;28;20060;-76
2023/06/19 02:25:06;;;;;;;3.92;2.50;;;25.70;43.80;;;;;;5051964;28;20036;-75
2023/06/19 02:27:32;;;;;;;3.40;2.42;;;25.70;43.90;;;;;;5035020;28;20032;-74
2023/06/19 02:29:59;;;;;;;3.20;2.47;;;25.70;43.90;;;;;;5052067;28;20171;-74
2023/06/19 02:32:25;;;;;;;3.60;2.55;;;25.60;43.80;;;;;;5035234;28;20119;-74
2023/06/19 02:34:50;;;;;;;3.25;2.60;;;25.60;43.90;;;;;;5053169;28;20480;-74
2023/06/19 02:37:16;;;;;;;2.92;2.53;;;25.60;43.90;;;;;;5053003;28;20029;-74
2023/06/19 02:39:42;;;;;;;3.75;2.70;;;25.60;44.00;;;;;;5035302;28;20068;-74
2023/06/19 02:42:08;;;;;;;3.13;2.35;;;25.60;44.00;;;;;;5053173;28;20091;-75
2023/06/19 02:44:34;;;;;;;2.95;2.45;;;25.60;44.00;;;;;;5053181;28;20086;-75
2023/06/19 02:46:59;;;;;;;3.20;2.40;;;25.50;44.00;;;;;;5052262;28;20037;-74
2023/06/19 02:49:25;;;;;;;3.97;2.58;;;25.50;44.10;;;;;;5035243;28;20463;-74
2023/06/19 02:51:51;;;;;;;3.53;2.60;;;25.50;44.70;;;;;;5035239;28;20051;-75
2023/06/19 02:54:17;;;;;;;3.90;2.50;;;25.50;44.20;;;;;;5052463;28;20488;-74
2023/06/19 02:56:42;;;;;;;3.03;2.33;;;25.50;44.20;;;;;;5051767;28;20529;-74
2023/06/19 02:59:08;;;;;;;3.28;2.50;;;25.40;44.20;;;;;;5051891;28;20033;-74
2023/06/19 03:01:34;;;;;;;3.97;2.30;;;25.40;44.20;;;;;;5035171;28;20076;-75
2023/06/19 03:04:00;;;;;;;2.83;2.20;;;25.40;44.20;;;;;;5018922;28;20035;-75
2023/06/19 03:06:26;;;;;;;2.85;2.00;;;25.40;45.00;;;;;;5053018;28;20114;-74
2023/06/19 03:08:52;;;;;;;2.83;2.25;;;25.40;44.40;;;;;;5034820;28;20474;-74
2023/06/19 03:11:18;;;;;;;2.78;2.25;;;25.40;44.40;;;;;;5035274;28;20041;-75
2023/06/19 03:13:52;;;;;;;2.90;2.22;;;25.40;44.50;;;;;;5051826;28;20044;-74
2023/06/19 03:16:20;;;;;;;3.28;2.00;;;25.30;44.50;;;;;;5052658;28;20033;-74
2023/06/19 03:18:46;;;;;;;2.78;2.10;;;25.30;44.50;;;;;;5051485;28;20039;-74
2023/06/19 03:21:14;;;;;;;3.30;2.30;;;25.30;44.50;;;;;;5035432;28;20033;-75
2023/06/19 03:23:41;;;;;;;2.80;2.13;;;25.30;44.70;;;;;;5051434;28;20063;-74
2023/06/19 03:26:08;;;;;;;3.17;2.20;;;25.20;44.60;;;;;;5035594;28;20029;-76
2023/06/19 03:28:35;;;;;;;2.70;1.90;;;25.20;44.70;;;;;;5052875;28;20076;-75
2023/06/19 03:31:02;;;;;;;2.40;1.88;;;25.20;44.70;;;;;;5038499;28;20074;-75
2023/06/19 03:33:28;;;;;;;2.47;1.80;;;25.20;44.70;;;;;;5038819;28;20546;-74
2023/06/19 03:35:54;;;;;;;2.00;1.70;;;25.10;44.70;;;;;;5022292;28;20033;-74
2023/06/19 03:38:34;;;;;;;2.80;1.92;;;25.10;44.70;;;;;;5040567;28;20036;-75
2023/06/19 03:41:02;;;;;;;2.90;2.10;;;25.10;44.80;;;;;;5038408;28;20460;-75
2023/06/19 03:43:27;;;;;;;2.47;1.83;;;25.10;44.80;;;;;;5038547;28;20458;-74
2023/06/19 03:45:53;;;;;;;2.53;1.83;;;25.10;45.00;;;;;;5038569;28;20062;-74
2023/06/19 03:48:20;;;;;;;2.53;2.00;;;25.10;45.00;;;;;;5038607;28;20060;-76
2023/06/19 03:50:45;;;;;;;2.25;1.65;;;25.10;45.00;;;;;;5021792;28;20472;-76
2023/06/19 03:53:11;;;;;;;2.85;1.83;;;25.10;45.10;;;;;;5037700;28;20045;-75
2023/06/19 03:55:37;;;;;;;4.00;2.00;;;25.00;45.00;;;;;;5038068;28;20025;-74
2023/06/19 03:58:03;;;;;;;1.80;1.48;;;25.00;45.10;;;;;;5056255;28;20104;-75
2023/06/19 04:00:28;;;;;;;2.17;1.70;;;25.00;45.20;;;;;;5055125;28;20387;-74
2023/06/19 04:02:54;;;;;;;2.47;1.77;;;25.00;45.30;;;;;;5054857;28;20363;-74
2023/06/19 04:05:20;;;;;;;2.17;1.75;;;25.00;45.30;;;;;;5038779;28;20099;-74
2023/06/19 04:07:47;;;;;;;2.00;1.52;;;24.90;45.30;;;;;;5037944;28;20037;-75
2023/06/19 04:10:14;;;;;;;1.75;1.55;;;24.90;45.40;;;;;;5038074;28;20025;-75
2023/06/19 04:12:40;;;;;;;2.08;1.63;;;24.90;45.40;;;;;;5054294;28;20378;-74
2023/06/19 04:15:09;;;;;;;1.58;1.48;;;24.90;45.50;;;;;;5054481;28;20037;-74
2023/06/19 04:17:36;;;;;;;1.58;1.48;;;24.80;45.40;;;;;;5038549;28;20043;-75
2023/06/19 04:20:10;;;;;;;2.33;1.70;;;24.80;45.40;;;;;;5037751;28;20043;-75
2023/06/19 04:22:40;;;;;;;2.15;1.48;;;24.80;45.50;;;;;;5037894;28;20120;-74
2023/06/19 04:25:08;;;;;;;2.13;1.60;;;24.80;45.60;;;;;;5037426;28;20033;-75
2023/06/19 04:27:33;;;;;;;2.17;1.60;;;24.80;45.60;;;;;;5054019;28;20029;-77
2023/06/19 04:29:59;;;;;;;2.30;1.70;;;24.80;45.60;;;;;;5054143;28;20032;-74
2023/06/19 04:32:25;;;;;;;2.35;1.73;;;24.80;45.70;;;;;;5053683;28;20059;-76
2023/06/19 04:34:50;;;;;;;2.10;1.52;;;24.80;45.70;;;;;;5053971;28;20029;-74
2023/06/19 04:37:19;;;;;;;2.60;1.70;;;24.80;45.80;;;;;;5054257;28;20422;-74
2023/06/19 04:39:45;;;;;;;2.20;1.60;;;24.80;45.80;;;;;;5036831;28;20114;-74
2023/06/19 04:42:19;;;;;;;1.60;1.40;;;24.80;45.90;;;;;;5053658;28;20047;-74
2023/06/19 04:44:48;;;;;;;2.10;1.50;;;24.80;46.00;;;;;;5055476;28;20029;-75
2023/06/19 04:47:16;;;;;;;1.55;1.40;;;24.70;45.90;;;;;;5053963;28;20036;-74
2023/06/19 04:49:42;;;;;;;2.20;1.50;;;24.70;46.00;;;;;;5037956;28;20040;-75
2023/06/19 04:52:08;;;;;;;1.80;1.50;;;24.70;46.10;;;;;;5036768;28;20393;-74
2023/06/19 04:54:33;;;;;;;2.40;1.60;;;24.70;46.10;;;;;;5037449;28;20095;-75
2023/06/19 04:56:59;;;;;;;1.60;1.50;;;24.70;46.10;;;;;;5037396;28;20465;-76
2023/06/19 04:59:25;;;;;;;2.42;1.75;;;24.70;46.10;;;;;;5054601;28;20041;-76
2023/06/19 05:01:53;;;;;;;1.90;1.50;;;24.70;46.10;;;;;;5053396;28;20037;-74
2023/06/19 05:04:20;;;;;;;1.75;1.50;;;24.60;46.10;;;;;;5037705;28;20110;-75
2023/06/19 05:06:46;;;;;;;2.75;1.70;;;24.70;46.20;;;;;;5037250;28;20056;-77
2023/06/19 05:09:11;;;;;;;2.08;1.55;;;24.60;46.20;;;;;;5037199;28;20040;-76
2023/06/19 05:11:37;;;;;;;2.67;1.67;;;24.60;46.30;;;;;;5054237;28;20025;-77
2023/06/19 05:14:03;;;;;;;2.47;1.60;;;24.60;46.30;;;;;;5020218;28;20097;-76
2023/06/19 05:16:29;;;;;;;2.17;1.60;;;24.60;46.30;;;;;;5036453;28;20029;-76
2023/06/19 05:18:54;;;;;;;1.50;1.40;;;24.60;46.30;;;;;;5036775;28;20048;-76
2023/06/19 05:21:20;;;;;;;2.00;1.40;;;24.60;46.30;;;;;;5054286;28;20044;-76
2023/06/19 05:23:50;;;;;;;1.92;1.35;;;24.60;46.40;;;;;;5019932;28;20099;-76
2023/06/19 05:26:22;;;;;;;3.10;1.63;;;24.60;46.40;;;;;;5052802;28;20037;-76
2023/06/19 05:28:49;;;;;;;1.58;1.40;;;24.50;46.50;;;;;;5052653;28;20054;-77
2023/06/19 05:31:14;;;;;;;1.90;1.40;;;24.60;46.50;;;;;;5053805;28;20525;-76
2023/06/19 05:33:41;;;;;;;2.22;1.70;;;24.60;46.50;;;;;;5053000;28;20044;-75
2023/06/19 05:36:07;;;;;;;2.00;1.60;;;24.60;46.60;;;;;;5052943;28;20116;-76
2023/06/19 05:38:33;;;;;;;1.83;1.40;;;24.50;46.60;;;;;;5052423;28;20029;-76
2023/06/19 05:40:59;;;;;;;2.20;1.52;;;24.50;46.70;;;;;;5052964;28;20059;-76
2023/06/19 05:43:26;;;;;;;1.60;1.50;;;24.50;46.70;;;;;;5052844;28;20037;-76
2023/06/19 05:46:02;;;;;;;2.10;1.58;;;24.50;46.70;;;;;;5053512;28;20025;-76
2023/06/19 05:48:28;;;;;;;1.95;1.45;;;24.50;46.70;;;;;;5037291;28;20029;-78
2023/06/19 05:50:54;;;;;;;1.83;1.50;;;24.40;46.70;;;;;;5052534;28;20510;-75
2023/06/19 05:53:19;;;;;;;1.73;1.35;;;24.50;46.80;;;;;;5053845;28;20049;-75
2023/06/19 05:55:45;;;;;;;1.75;1.48;;;24.50;46.70;;;;;;5038544;28;20491;-76
2023/06/19 05:58:11;;;;;;;1.73;1.50;;;24.50;46.70;;;;;;5054788;28;20481;-76
2023/06/19 06:00:36;;;;;;;1.85;1.48;;;24.50;46.70;;;;;;5054478;28;20074;-77
2023/06/19 06:03:02;;;;;;;1.73;1.42;;;24.50;46.70;;;;;;5036073;28;20036;-78
2023/06/19 06:05:28;;;;;;;2.00;1.60;;;24.50;46.60;;;;;;5052869;28;20580;-76
2023/06/19 06:07:55;;;;;;;2.60;1.70;;;24.50;46.60;;;;;;5052555;28;20112;-76
2023/06/19 06:10:22;;;;;;;1.55;1.33;;;24.50;46.70;;;;;;5052519;28;20037;-74
2023/06/19 06:12:48;;;;;;;1.75;1.60;;;24.50;46.70;;;;;;5035812;28;20037;-77
2023/06/19 06:15:14;;;;;;;2.17;1.33;;;24.50;46.70;;;;;;5053070;28;20036;-77
2023/06/19 06:17:40;;;;;;;2.00;1.63;;;24.40;46.80;;;;;;5053191;28;20397;-79
2023/06/19 06:20:12;;;;;;;2.00;1.70;;;24.40;46.80;;;;;;5035918;28;20502;-76
2023/06/19 06:22:41;;;;;;;1.60;1.42;;;24.40;46.80;;;;;;5052317;28;20055;-76
2023/06/19 06:25:10;;;;;;;2.00;1.52;;;24.40;46.80;;;;;;5052109;28;20488;-77
2023/06/19 06:27:35;;;;;;;2.03;1.48;;;24.40;46.80;;;;;;5052178;28;20021;-77
2023/06/19 06:30:02;;;;;;;1.80;1.60;;;24.40;46.80;;;;;;5052228;28;20430;-76
2023/06/19 06:32:30;;;;;;;2.08;1.67;;;24.40;46.80;;;;;;5052026;28;20033;-75
2023/06/19 06:34:57;;;;;;;2.08;1.77;;;24.50;46.90;;;;;;5052421;28;20041;-74
2023/06/19 06:37:23;;;;;;;1.95;1.55;;;24.40;46.90;;;;;;5035908;28;20029;-73
2023/06/19 06:39:49;;;;;;;1.88;1.63;;;24.50;47.00;;;;;;5053518;28;20454;-73
2023/06/19 06:42:16;;;;;;;2.10;1.50;;;24.40;46.90;;;;;;5052143;28;20049;-77
2023/06/19 06:44:42;;;;;;;3.05;2.00;;;24.40;47.00;;;;;;5036149;28;20116;-75
2023/06/19 06:47:08;;;;;;;2.00;1.80;;;24.40;47.00;;;;;;5051676;28;20160;-77
2023/06/19 06:49:35;;;;;;;2.92;2.00;;;24.40;47.00;;;;;;5051992;28;20033;-77
2023/06/19 06:52:00;;;;;;;3.40;1.80;;;24.50;47.10;;;;;;5035336;28;20079;-76
2023/06/19 06:54:26;;;;;;;1.92;1.63;;;24.40;47.10;;;;;;5051628;28;20167;-74
2023/06/19 06:56:56;;;;;;;1.88;1.55;;;24.40;47.10;;;;;;5035778;28;20041;-75
2023/06/19 06:59:21;;;;;;;2.67;1.85;;;24.40;47.10;;;;;;5052997;28;20040;-75
2023/06/19 07:01:47;;;;;;;2.33;1.80;;;24.40;47.10;;;;;;5034831;28;20406;-77
2023/06/19 07:04:13;;;;;;;2.13;1.85;;;24.50;47.20;;;;;;5054643;28;20029;-76
2023/06/19 07:06:38;;;;;;;2.65;1.90;;;24.40;47.20;;;;;;5039711;28;20057;-77
2023/06/19 07:09:04;;;;;;;2.58;1.80;;;24.40;47.20;;;;;;5038830;28;20033;-77
2023/06/19 07:11:30;;;;;;;2.10;1.70;;;24.40;47.20;;;;;;5055793;28;20482;-78
2023/06/19 07:13:55;;;;;;;2.15;1.80;;;24.40;47.20;;;;;;5039459;28;20040;-76
2023/06/19 07:16:21;;;;;;;2.47;1.85;;;24.40;47.30;;;;;;5055076;28;20036;-75
2023/06/19 07:18:49;;;;;;;2.25;1.85;;;24.40;47.30;;;;;;5055124;28;20029;-76
2023/06/19 07:21:15;;;;;;;2.30;1.83;;;24.40;47.30;;;;;;5039348;28;20061;-77
2023/06/19 07:23:42;;;;;;;2.05;1.70;;;24.40;47.30;;;;;;5038660;28;20465;-78
2023/06/19 07:26:09;;;;;;;3.03;2.17;;;24.40;47.40;;;;;;5055706;28;20450;-77
2023/06/19 07:28:36;;;;;;;2.40;1.90;;;24.40;47.40;;;;;;5038761;28;20206;-77
2023/06/19 07:31:03;;;;;;;1.95;1.60;;;24.40;47.40;;;;;;5054757;28;20098;-78
2023/06/19 07:33:29;;;;;;;2.70;1.73;;;24.40;47.50;;;;;;5039055;28;20028;-78
2023/06/19 07:35:55;;;;;;;2.17;1.83;;;24.50;47.60;;;;;;5054989;28;20489;-77
2023/06/19 07:38:21;;;;;;;2.25;1.83;;;24.50;47.70;;;;;;5039075;28;20025;-77
2023/06/19 07:40:47;;;;;;;2.78;1.90;;;24.50;47.60;;;;;;5038285;28;20512;-76
2023/06/19 07:43:13;;;;;;;2.28;1.90;;;24.50;47.60;;;;;;5038152;28;20033;-75
2023/06/19 07:45:39;;;;;;;2.40;1.90;;;24.60;47.70;;;;;;5054634;28;20037;-77
2023/06/19 07:48:05;;;;;;;3.03;1.98;;;24.60;47.70;;;;;;5054532;28;20033;-75
2023/06/19 07:50:31;;;;;;;3.83;2.10;;;24.60;47.70;;;;;;5037725;28;20083;-75
2023/06/19 07:52:57;;;;;;;2.42;1.92;;;24.60;47.70;;;;;;5037899;28;20401;-74
2023/06/19 07:55:23;;;;;;;2.92;1.75;;;24.60;47.70;;;;;;5056334;28;20029;-75
2023/06/19 07:57:49;;;;;;;2.60;2.08;;;24.70;47.70;;;;;;5037755;28;20493;-75
2023/06/19 08:00:15;;;;;;;3.13;1.92;;;24.70;47.70;;;;;;5055268;28;20378;-75
2023/06/19 08:02:41;;;;;;;2.75;2.13;;;24.70;47.60;;;;;;5054630;28;20424;-73
2023/06/19 08:05:08;;;;;;;2.65;2.00;;;24.70;47.60;;;;;;5054791;28;20036;-75
2023/06/19 08:07:34;;;;;;;3.20;2.15;;;24.80;47.60;;;;;;5055856;28;20029;-74
2023/06/19 08:10:00;;;;;;;2.40;1.95;;;24.80;47.50;;;;;;5053973;28;20033;-74
2023/06/19 08:12:26;;;;;;;2.80;2.10;;;24.90;47.50;;;;;;5054160;28;20033;-73
2023/06/19 08:14:52;;;;;;;2.67;2.13;;;24.90;47.50;;;;;;5053639;28;20037;-74
2023/06/19 08:17:18;;;;;;;2.58;2.17;;;25.00;47.50;;;;;;5054447;28;20481;-73
2023/06/19 08:19:43;;;;;;;3.85;2.35;;;25.00;47.50;;;;;;5054179;28;20033;-73
2023/06/19 08:22:09;;;;;;;2.97;2.15;;;25.10;47.60;;;;;;5054927;28;20571;-74
2023/06/19 08:24:36;;;;;;;2.75;2.13;;;25.10;47.50;;;;;;5054061;28;20195;-73
2023/06/19 08:27:02;;;;;;;3.20;2.22;;;25.10;47.50;;;;;;5053978;28;20033;-74
2023/06/19 08:29:28;;;;;;;3.30;2.35;;;25.20;47.50;;;;;;5037511;28;20384;-73
2023/06/19 08:31:54;;;;;;;3.65;2.58;;;25.30;47.50;;;;;;5053771;28;20120;-74
2023/06/19 08:34:19;;;;;;;3.42;2.25;;;25.30;47.60;;;;;;5036927;28;20032;-73
2023/06/19 08:36:45;;;;;;;3.83;2.83;;;25.40;47.50;;;;;;5053779;28;20132;-77
2023/06/19 08:39:11;;;;;;;3.35;2.47;;;25.40;47.40;;;;;;5037381;28;20382;-74
2023/06/19 08:41:38;;;;;;;3.47;2.80;;;25.40;47.40;;;;;;5037263;28;20037;-74
2023/06/19 08:44:05;;;;;;;2.88;2.17;;;25.50;47.40;;;;;;5053394;28;20108;-76
2023/06/19 08:46:30;;;;;;;3.33;2.55;;;25.60;47.40;;;;;;5020861;28;20059;-76
2023/06/19 08:48:56;;;;;;;2.97;2.35;;;25.60;47.40;;;;;;5037044;28;20063;-74
2023/06/19 08:51:22;;;;;;;2.78;2.22;;;25.60;47.30;;;;;;5054229;28;20080;-74
2023/06/19 08:53:53;;;;;;;3.33;2.47;;;25.70;47.30;;;;;;5053682;28;20041;-74
2023/06/19 08:56:19;;;;;;;3.28;2.60;;;25.70;47.30;;;;;;5053333;28;20477;-76
2023/06/19 08:58:45;;;;;;;2.70;2.20;;;25.80;47.30;;;;;;5054913;28;20037;-74
2023/06/19 09:01:11;;;;;;;3.67;2.47;;;25.90;47.30;;;;;;5020311;28;20037;-76
2023/06/19 09:03:36;;;;;;;3.25;2.45;;;25.90;47.30;;;;;;5037032;28;20037;-76
2023/06/19 09:06:09;;;;;;;3.22;2.40;;;25.90;47.20;;;;;;5053537;28;20062;-78
2023/06/19 09:08:37;;;;;;;3.30;2.70;;;26.00;47.30;;;;;;5036992;28;20037;-76
2023/06/19 09:11:04;;;;;;;3.38;2.58;;;26.10;47.20;;;;;;5036624;28;20393;-74
2023/06/19 09:13:31;;;;;;;3.30;2.60;;;26.10;47.20;;;;;;5053523;28;20100;-75
2023/06/19 09:16:06;;;;;;;3.40;2.78;;;26.10;47.20;;;;;;5036862;28;20044;-77
2023/06/19 09:18:43;;;;;;;3.95;2.67;;;26.20;47.20;;;;;;5053609;28;20048;-74
2023/06/19 09:21:23;;;;;;;3.83;2.78;;;26.30;47.20;;;;;;5037229;28;20465;-74
2023/06/19 09:23:51;;;;;;;3.15;2.55;;;26.30;47.20;;;;;;5053885;28;20052;-81
2023/06/19 09:26:20;;;;;;;3.38;2.53;;;26.40;47.10;;;;;;5052351;28;20122;-75
2023/06/19 09:28:46;;;;;;;2.95;2.55;;;26.40;47.10;;;;;;5036701;28;20033;-73
2023/06/19 09:31:12;;;;;;;4.22;2.80;;;26.50;47.10;;;;;;5052909;28;20055;-75
2023/06/19 09:33:39;;;;;;;4.00;2.95;;;26.50;47.10;;;;;;5036085;28;20473;-74
2023/06/19 09:36:06;;;;;;;3.22;2.53;;;26.50;47.10;;;;;;5052728;28;20032;-75
2023/06/19 09:38:35;;;;;;;3.25;2.50;;;26.50;47.00;;;;;;5052973;28;20492;-78
2023/06/19 09:41:03;;;;;;;3.88;2.88;;;26.60;47.10;;;;;;5036016;28;20028;-77
2023/06/19 09:43:43;;;;;;;3.75;2.83;;;26.60;47.10;;;;;;5019545;28;20563;-76
2023/06/19 09:46:10;;;;;;;4.10;3.30;;;26.70;47.20;;;;;;5053504;28;20187;-76
2023/06/19 09:48:42;;;;;;;3.40;2.75;;;26.70;47.10;;;;;;5053187;28;20511;-77
2023/06/19 09:51:18;;;;;;;3.35;2.67;;;26.80;47.10;;;;;;5019406;28;20048;-77
2023/06/19 09:53:53;;;;;;;3.70;2.78;;;26.80;47.00;;;;;;5052637;28;20112;-78
2023/06/19 09:56:21;;;;;;;4.07;2.88;;;26.90;47.10;;;;;;5053256;28;20061;-74
2023/06/19 09:58:49;;;;;;;3.58;2.63;;;27.00;47.10;;;;;;5036846;28;20036;-76
2023/06/19 10:01:18;;;;;;;3.55;2.85;;;27.00;47.00;;;;;;5052854;28;20051;-76
2023/06/19 10:03:44;;;;;;;3.60;2.90;;;27.10;47.00;;;;;;5054002;28;20119;-75
2023/06/19 10:06:15;;;;;;;3.45;2.67;;;27.10;46.90;;;;;;5053411;28;20064;-75
2023/06/19 10:08:43;;;;;;;4.60;3.25;;;27.20;47.00;;;;;;5035715;28;20059;-74
2023/06/19 10:11:10;;;;;;;3.85;2.90;;;27.30;46.90;;;;;;5051919;28;20041;-75
2023/06/19 10:13:40;;;;;;;3.85;2.80;;;27.40;46.90;;;;;;5035214;28;20091;-75
2023/06/19 10:16:07;;;;;;;4.18;2.80;;;27.40;46.80;;;;;;5035688;28;20424;-77
2023/06/19 10:18:48;;;;;;;3.33;2.78;;;27.50;46.80;;;;;;5036107;28;20064;-76
2023/06/19 10:21:21;;;;;;;3.67;2.83;;;27.60;46.80;;;;;;5053064;28;20025;-75
2023/06/19 10:23:58;;;;;;;3.15;2.63;;;27.60;46.70;;;;;;5052042;28;20029;-76
2023/06/19 10:26:36;;;;;;;3.83;2.95;;;27.80;46.70;;;;;;5051958;28;20067;-75
2023/06/19 10:29:13;;;;;;;3.40;2.53;;;27.80;46.60;;;;;;5035547;28;20103;-76
2023/06/19 10:31:38;;;;;;;3.97;3.25;;;27.90;46.60;;;;;;5037139;28;20446;-75
2023/06/19 10:34:04;;;;;;;3.55;2.58;;;28.00;46.50;;;;;;5035824;28;20048;-76
2023/06/19 10:36:31;;;;;;;4.28;3.10;;;28.10;46.60;;;;;;5052088;28;20040;-77
2023/06/19 10:38:57;;;;;;;4.03;2.80;;;28.10;46.50;;;;;;5051776;28;20033;-75
2023/06/19 10:41:25;;;;;;;3.70;2.80;;;28.20;46.60;;;;;;5051947;28;20055;-76
2023/06/19 10:43:56;;;;;;;4.45;2.83;;;28.30;46.50;;;;;;5035359;28;20068;-76
2023/06/19 10:46:24;;;;;;;3.08;2.63;;;28.30;46.50;;;;;;5052047;28;20029;-79
2023/06/19 10:48:51;;;;;;;3.53;2.65;;;28.40;46.40;;;;;;5052775;28;20022;-74
2023/06/19 10:51:20;;;;;;;3.88;3.13;;;28.50;46.40;;;;;;5035128;28;20082;-75
2023/06/19 10:53:46;;;;;;;4.03;2.95;;;28.50;46.40;;;;;;5018482;28;20049;-75
2023/06/19 10:56:12;;;;;;;4.55;3.40;;;28.60;46.40;;;;;;5051633;28;20025;-75
2023/06/19 10:58:37;;;;;;;3.55;2.88;;;28.60;46.30;;;;;;5035823;28;20478;-76
2023/06/19 11:01:03;;;;;;;3.97;3.00;;;28.70;46.40;;;;;;5051526;28;20108;-77
2023/06/19 11:03:31;;;;;;;3.50;3.00;;;28.70;46.40;;;;;;5035568;28;20033;-76
2023/06/19 11:05:57;;;;;;;4.45;3.22;;;28.80;46.50;;;;;;5034860;28;20021;-75
2023/06/19 11:08:23;;;;;;;3.97;2.85;;;28.80;46.50;;;;;;5051426;28;20027;-75
2023/06/19 11:10:50;;;;;;;3.67;3.05;;;28.90;46.60;;;;;;5034791;28;20058;-75
2023/06/19 11:13:20;;;;;;;4.68;3.65;;;28.90;46.60;;;;;;5051175;28;20090;-74
2023/06/19 11:15:49;;;;;;;4.18;3.20;;;29.00;46.70;;;;;;5052117;28;20037;-73
2023/06/19 11:18:16;;;;;;;3.40;2.90;;;29.00;46.80;;;;;;5052250;28;20044;-74
2023/06/19 11:20:50;;;;;;;4.25;3.20;;;29.00;46.80;;;;;;5052194;28;20029;-74
2023/06/19 11:23:17;;;;;;;3.75;3.20;;;29.10;46.90;;;;;;5052610;28;20147;-79
2023/06/19 11:25:43;;;;;;;3.40;2.88;;;29.10;47.00;;;;;;5034503;28;20066;-76
2023/06/19 11:28:22;;;;;;;3.97;3.13;;;29.10;47.60;;;;;;5034631;28;20029;-75
2023/06/19 11:30:49;;;;;;;3.33;2.72;;;29.10;47.10;;;;;;5051645;28;20044;-77
2023/06/19 11:33:24;;;;;;;3.33;2.90;;;29.20;47.10;;;;;;5034537;28;20053;-76
2023/06/19 11:35:51;;;;;;;4.18;3.20;;;29.20;47.20;;;;;;5035108;28;20386;-75
2023/06/19 11:38:23;;;;;;;4.30;3.08;;;29.20;47.10;;;;;;5051103;28;20492;-75
2023/06/19 11:40:50;;;;;;;3.67;2.95;;;29.20;47.20;;;;;;5051597;28;20029;-77
2023/06/19 11:43:31;;;;;;;4.25;3.35;;;29.30;47.20;;;;;;5035002;28;20119;-77
2023/06/19 11:46:07;;;;;;;4.93;3.28;;;29.30;47.20;;;;;;5034858;28;20032;-77
2023/06/19 11:48:37;;;;;;;4.30;3.47;;;29.30;47.20;;;;;;5051847;28;20036;-77
2023/06/19 11:51:03;;;;;;;3.45;2.90;;;29.30;47.20;;;;;;5038871;28;20131;-75
2023/06/19 11:53:29;;;;;;;3.92;2.95;;;29.30;47.10;;;;;;5037705;28;20146;-76
2023/06/19 11:55:56;;;;;;;4.40;3.25;;;29.30;47.10;;;;;;5055862;28;20476;-76
2023/06/19 11:58:22;;;;;;;4.53;3.50;;;29.40;47.20;;;;;;5038144;28;20048;-77
2023/06/19 12:00:48;;;;;;;5.18;3.88;;;29.40;47.20;;;;;;5054412;28;20017;-75
2023/06/19 12:03:14;;;;;;;4.75;3.65;;;29.40;47.10;;;;;;5054820;28;20033;-75
2023/06/19 12:05:40;;;;;;;4.32;3.60;;;29.40;47.10;;;;;;5037915;28;20029;-75
2023/06/19 12:08:06;;;;;;;4.03;3.30;;;29.40;47.10;;;;;;5038035;28;20032;-77
2023/06/19 12:10:33;;;;;;;3.90;3.22;;;29.50;47.10;;;;;;5054395;28;20033;-75
2023/06/19 12:12:59;;;;;;;3.70;3.30;;;29.50;47.10;;;;;;5054306;28;20108;-74
2023/06/19 12:15:25;;;;;;;4.07;3.33;;;29.50;47.00;;;;;;5055912;28;20492;-76
2023/06/19 12:17:51;;;;;;;4.63;3.47;;;29.50;47.00;;;;;;5037861;28;20037;-76
2023/06/19 12:20:17;;;;;;;4.50;3.60;;;29.50;46.90;;;;;;5054157;28;20446;-77
2023/06/19 12:22:43;;;;;;;5.45;3.90;;;29.50;46.90;;;;;;5055148;28;20029;-76
2023/06/19 12:25:09;;;;;;;4.28;3.15;;;29.60;46.90;;;;;;5054307;28;20082;-77
2023/06/19 12:27:34;;;;;;;5.97;3.55;;;29.60;46.90;;;;;;5054146;28;20199;-76
2023/06/19 12:30:00;;;;;;;4.22;3.20;;;29.60;46.90;;;;;;5054362;28;20032;-76
2023/06/19 12:32:26;;;;;;;4.30;3.30;;;29.60;46.80;;;;;;5037807;28;20528;-76
2023/06/19 12:34:53;;;;;;;4.25;3.13;;;29.60;46.70;;;;;;5054147;28;20078;-75
2023/06/19 12:37:20;;;;;;;4.38;3.50;;;29.60;46.70;;;;;;5055794;28;20037;-76
2023/06/19 12:39:47;;;;;;;4.05;3.17;;;29.60;46.70;;;;;;5054057;28;20108;-77
2023/06/19 12:42:13;;;;;;;4.88;3.50;;;29.60;46.60;;;;;;5020860;28;20029;-77
2023/06/19 12:44:44;;;;;;;4.07;3.28;;;29.60;46.60;;;;;;5037316;28;20047;-77
2023/06/19 12:47:10;;;;;;;4.47;3.38;;;29.60;46.60;;;;;;5053590;28;20114;-76
2023/06/19 12:49:36;;;;;;;4.43;3.38;;;29.60;46.50;;;;;;5037216;28;20060;-77